Terminal Aerodrome Forecast
Issued by NWS

Home | Current Version | Previous Version | Text Only | Print | Product List | Glossary On
Versions: 1 2 3 4 5 6 7 8 9 10 11 12
000
FTAK31 PAJN 201124
TAFAYA
TAF
PAYA 201124Z 2012/2112 VRB04KT P6SM VCSH BKN040
     FM201600 12007KT P6SM -SHRA OVC040
      TEMPO 2016/2020 BKN025 OVC035
      AMD LTD TO CLD VIS AND WIND=

USA.gov is the U.S. government's official web portal to all federal, state and local government web resources and services.